Time;durP1;ratioP1;P1;durP2;ratioP2;P2;SDS_P1;SDS_P2;PMS_P1;PMS_P2;Temp;Humidity;BMP_temperature;BMP_pressure;BME280_temperature;BME280_humidity;BME280_pressure;Samples;Min_cycle;Max_cycle;Signal;HPM_P1;HPM_P2
2022/04/07 00:00:28;;;;;;;;;0.00;0.00;;;;;;;;5072829;28;46155;-67
2022/04/07 00:02:53;;;;;;;;;1.00;0.00;;;;;;;;5073576;28;45272;-67
2022/04/07 00:05:19;;;;;;;;;2.00;0.50;;;;;;;;5073393;28;45438;-67
2022/04/07 00:07:44;;;;;;;;;1.25;0.00;;;;;;;;5073585;28;45357;-67
2022/04/07 00:10:09;;;;;;;;;0.00;0.00;;;;;;;;5082589;27;45578;-68
2022/04/07 00:12:34;;;;;;;;;2.00;0.00;;;;;;;;5082933;27;45394;-67
2022/04/07 00:15:01;;;;;;;;;1.50;0.50;;;;;;;;5075836;27;45208;-67
2022/04/07 00:17:29;;;;;;;;;0.00;0.00;;;;;;;;5073188;28;45291;-67
2022/04/07 00:19:54;;;;;;;;;2.00;0.00;;;;;;;;5073180;28;46988;-67
2022/04/07 00:22:19;;;;;;;;;0.00;0.00;;;;;;;;5073096;28;45419;-67
2022/04/07 00:24:44;;;;;;;;;0.50;0.00;;;;;;;;5075574;28;45378;-67
2022/04/07 00:27:10;;;;;;;;;0.00;0.00;;;;;;;;5072984;28;45521;-67
2022/04/07 00:29:35;;;;;;;;;0.00;0.00;;;;;;;;5067924;28;45531;-67
2022/04/07 00:32:03;;;;;;;;;0.00;0.00;;;;;;;;5073308;28;45418;-67
2022/04/07 00:34:29;;;;;;;;;0.00;0.00;;;;;;;;5073421;27;45294;-67
2022/04/07 00:36:54;;;;;;;;;0.50;0.50;;;;;;;;5075016;28;45373;-67
2022/04/07 00:39:19;;;;;;;;;2.00;0.00;;;;;;;;5073165;28;46360;-67
2022/04/07 00:41:45;;;;;;;;;1.25;0.00;;;;;;;;5071499;28;45260;-66
2022/04/07 00:44:11;;;;;;;;;1.00;1.00;;;;;;;;5073909;28;45619;-68
2022/04/07 00:46:36;;;;;;;;;0.00;0.00;;;;;;;;5071516;28;45604;-68
2022/04/07 00:49:02;;;;;;;;;0.00;0.00;;;;;;;;5073852;27;45401;-67
2022/04/07 00:51:27;;;;;;;;;0.00;0.00;;;;;;;;5072289;28;45455;-67
2022/04/07 00:53:52;;;;;;;;;0.00;0.00;;;;;;;;5070244;28;45432;-67
2022/04/07 00:56:17;;;;;;;;;0.00;0.00;;;;;;;;5071351;28;45762;-67
2022/04/07 00:58:44;;;;;;;;;0.00;0.00;;;;;;;;5070775;28;45357;-67
2022/04/07 01:01:10;;;;;;;;;1.00;0.00;;;;;;;;5090885;27;45561;-67
2022/04/07 01:03:35;;;;;;;;;0.00;0.00;;;;;;;;5078569;28;45321;-68
2022/04/07 01:06:01;;;;;;;;;0.00;0.00;;;;;;;;5074757;28;45452;-67
2022/04/07 01:08:26;;;;;;;;;0.00;0.00;;;;;;;;5076361;28;45432;-67
2022/04/07 01:10:51;;;;;;;;;0.00;0.00;;;;;;;;5084318;27;45291;-67
2022/04/07 01:13:17;;;;;;;;;0.00;0.00;;;;;;;;5078135;27;45462;-67
2022/04/07 01:15:42;;;;;;;;;0.00;0.00;;;;;;;;5098951;27;45429;-67
2022/04/07 01:18:07;;;;;;;;;0.00;0.00;;;;;;;;5096309;27;45491;-67
2022/04/07 01:20:32;;;;;;;;;1.50;0.00;;;;;;;;5096189;27;45453;-67
2022/04/07 01:22:58;;;;;;;;;0.75;0.00;;;;;;;;5094770;27;45308;-67
2022/04/07 01:25:26;;;;;;;;;0.00;0.00;;;;;;;;5091049;27;45299;-67
2022/04/07 01:27:52;;;;;;;;;0.50;0.50;;;;;;;;5093907;27;45411;-67
2022/04/07 01:30:17;;;;;;;;;1.00;1.00;;;;;;;;5095763;27;45434;-67
2022/04/07 01:32:44;;;;;;;;;0.00;0.00;;;;;;;;5093668;27;45394;-67
2022/04/07 01:35:10;;;;;;;;;0.00;0.00;;;;;;;;5094365;27;45648;-67
2022/04/07 01:37:36;;;;;;;;;0.00;0.00;;;;;;;;5095446;27;46603;-67
2022/04/07 01:40:03;;;;;;;;;0.00;0.00;;;;;;;;5097166;27;45181;-67
2022/04/07 01:42:29;;;;;;;;;0.00;0.00;;;;;;;;5097046;27;45619;-67
2022/04/07 01:44:57;;;;;;;;;0.00;0.00;;;;;;;;5095940;27;45394;-67
2022/04/07 01:47:22;;;;;;;;;0.00;0.00;;;;;;;;5093591;27;46559;-67
2022/04/07 01:50:02;;;;;;;;;0.75;0.75;;;;;;;;5078701;27;45422;-67
2022/04/07 01:52:29;;;;;;;;;0.00;0.00;;;;;;;;5093530;27;45395;-67
2022/04/07 01:54:54;;;;;;;;;0.00;0.00;;;;;;;;5097698;27;45408;-67
2022/04/07 01:57:23;;;;;;;;;0.75;0.00;;;;;;;;5095401;27;45394;-67
2022/04/07 01:59:49;;;;;;;;;0.00;0.00;;;;;;;;5095141;27;45622;-67
2022/04/07 02:02:15;;;;;;;;;0.00;0.00;;;;;;;;5095890;27;45316;-67
2022/04/07 02:05:11;;;;;;;;;1.00;1.00;;;;;;;;5095885;27;45428;-67
2022/04/07 02:07:37;;;;;;;;;1.00;0.00;;;;;;;;5065615;27;46540;-67
2022/04/07 02:10:03;;;;;;;;;2.00;0.00;;;;;;;;5095975;27;45379;-67
2022/04/07 02:12:29;;;;;;;;;2.25;0.00;;;;;;;;5094096;27;45169;-67
2022/04/07 02:14:56;;;;;;;;;1.00;0.00;;;;;;;;5093763;27;45355;-67
2022/04/07 02:17:22;;;;;;;;;1.00;1.00;;;;;;;;5094201;27;46217;-67
2022/04/07 02:19:51;;;;;;;;;0.00;0.00;;;;;;;;5093862;27;45378;-67
2022/04/07 02:22:17;;;;;;;;;1.75;1.00;;;;;;;;5094801;27;45287;-67
2022/04/07 02:24:42;;;;;;;;;2.00;0.00;;;;;;;;5096217;27;45538;-67
2022/04/07 02:27:08;;;;;;;;;0.25;0.25;;;;;;;;5094591;27;46564;-67
2022/04/07 02:29:33;;;;;;;;;1.25;0.00;;;;;;;;5095399;27;45464;-67
2022/04/07 02:31:58;;;;;;;;;0.00;0.00;;;;;;;;5095545;27;45458;-67
2022/04/07 02:34:24;;;;;;;;;0.00;0.00;;;;;;;;5096398;27;45249;-67
2022/04/07 02:36:49;;;;;;;;;0.00;0.00;;;;;;;;5096282;27;46663;-67
2022/04/07 02:39:14;;;;;;;;;0.75;0.75;;;;;;;;5092830;27;45443;-67
2022/04/07 02:41:39;;;;;;;;;0.25;0.00;;;;;;;;5092640;27;45472;-67
2022/04/07 02:44:05;;;;;;;;;0.75;0.25;;;;;;;;5077326;27;45473;-67
2022/04/07 02:46:30;;;;;;;;;1.00;0.00;;;;;;;;5092824;27;45343;-67
2022/04/07 02:48:55;;;;;;;;;0.00;0.00;;;;;;;;5096171;27;45320;-67
2022/04/07 02:51:20;;;;;;;;;0.00;0.00;;;;;;;;5095630;27;45729;-67
2022/04/07 02:53:46;;;;;;;;;0.00;0.00;;;;;;;;5092773;27;45557;-67
2022/04/07 02:56:11;;;;;;;;;0.00;0.00;;;;;;;;5092586;27;45488;-67
2022/04/07 02:58:36;;;;;;;;;0.00;0.00;;;;;;;;5092850;27;45546;-67
2022/04/07 03:01:01;;;;;;;;;1.25;1.00;;;;;;;;5077231;27;45547;-67
2022/04/07 03:03:26;;;;;;;;;0.50;0.00;;;;;;;;5095789;27;45491;-67
2022/04/07 03:05:52;;;;;;;;;0.00;0.00;;;;;;;;5092887;27;45417;-67
2022/04/07 03:08:17;;;;;;;;;0.00;0.00;;;;;;;;5094841;27;45426;-67
2022/04/07 03:10:42;;;;;;;;;1.00;0.00;;;;;;;;5094317;27;45367;-67
2022/04/07 03:13:07;;;;;;;;;0.00;0.00;;;;;;;;5082855;27;45992;-67
2022/04/07 03:15:33;;;;;;;;;0.00;0.00;;;;;;;;5096475;27;45599;-67
2022/04/07 03:17:58;;;;;;;;;0.00;0.00;;;;;;;;5095315;27;45459;-67
2022/04/07 03:20:23;;;;;;;;;3.25;0.00;;;;;;;;5094512;27;45498;-67
2022/04/07 03:22:48;;;;;;;;;0.00;0.00;;;;;;;;5093846;27;45372;-67
2022/04/07 03:25:13;;;;;;;;;0.00;0.00;;;;;;;;5093781;27;45467;-67
2022/04/07 03:27:39;;;;;;;;;0.00;0.00;;;;;;;;5096503;27;45467;-67
2022/04/07 03:30:04;;;;;;;;;0.00;0.00;;;;;;;;5093094;27;45405;-67
2022/04/07 03:32:29;;;;;;;;;0.00;0.00;;;;;;;;5094359;27;45536;-67
2022/04/07 03:34:54;;;;;;;;;0.00;0.00;;;;;;;;5093989;27;47569;-67
2022/04/07 03:37:20;;;;;;;;;0.00;0.00;;;;;;;;5093452;27;45400;-67
2022/04/07 03:39:46;;;;;;;;;1.50;0.50;;;;;;;;5096615;27;45377;-67
2022/04/07 03:42:11;;;;;;;;;0.00;0.00;;;;;;;;5094017;27;45387;-68
2022/04/07 03:44:36;;;;;;;;;0.00;0.00;;;;;;;;5077196;27;48358;-67
2022/04/07 03:47:02;;;;;;;;;0.00;0.00;;;;;;;;5093940;27;45464;-67
2022/04/07 03:49:27;;;;;;;;;1.25;0.00;;;;;;;;5094294;27;45287;-67
2022/04/07 03:51:52;;;;;;;;;0.00;0.00;;;;;;;;5095500;27;45362;-67
2022/04/07 03:54:17;;;;;;;;;0.00;0.00;;;;;;;;5091025;27;46052;-67
2022/04/07 03:56:43;;;;;;;;;0.00;0.00;;;;;;;;5092364;27;45371;-67
2022/04/07 03:59:09;;;;;;;;;0.00;0.00;;;;;;;;5091742;27;45442;-67
2022/04/07 04:01:35;;;;;;;;;0.00;0.00;;;;;;;;5092308;27;45283;-67
2022/04/07 04:04:01;;;;;;;;;0.50;0.00;;;;;;;;5095290;27;46585;-67
2022/04/07 04:06:26;;;;;;;;;0.00;0.00;;;;;;;;5092203;27;45360;-67
2022/04/07 04:08:52;;;;;;;;;0.75;0.00;;;;;;;;5092635;27;45288;-67
2022/04/07 04:11:18;;;;;;;;;0.00;0.00;;;;;;;;5093534;27;45273;-67
2022/04/07 04:13:43;;;;;;;;;0.00;0.00;;;;;;;;5094793;27;47258;-67
2022/04/07 04:16:09;;;;;;;;;0.00;0.00;;;;;;;;5094620;27;45591;-67
2022/04/07 04:18:34;;;;;;;;;0.00;0.00;;;;;;;;5095600;27;45283;-67
2022/04/07 04:21:00;;;;;;;;;1.00;0.00;;;;;;;;5092915;27;45538;-66
2022/04/07 04:23:25;;;;;;;;;0.00;0.00;;;;;;;;5091931;27;45402;-67
2022/04/07 04:25:50;;;;;;;;;1.00;1.00;;;;;;;;5091988;27;45280;-67
2022/04/07 04:28:15;;;;;;;;;0.00;0.00;;;;;;;;5093121;27;45694;-67
2022/04/07 04:30:41;;;;;;;;;1.00;0.00;;;;;;;;5094474;27;45351;-67
2022/04/07 04:33:06;;;;;;;;;0.00;0.00;;;;;;;;5093980;27;46290;-67
2022/04/07 04:35:31;;;;;;;;;0.50;0.50;;;;;;;;5096825;27;45533;-67
2022/04/07 04:37:56;;;;;;;;;1.00;0.00;;;;;;;;5097462;27;45280;-67
2022/04/07 04:40:22;;;;;;;;;0.00;0.00;;;;;;;;5096495;27;45485;-67
2022/04/07 04:42:47;;;;;;;;;1.00;0.00;;;;;;;;5098676;27;45407;-67
2022/04/07 04:45:12;;;;;;;;;0.00;0.00;;;;;;;;5096738;27;45329;-67
2022/04/07 04:47:37;;;;;;;;;1.00;0.00;;;;;;;;5093022;27;45591;-67
2022/04/07 04:50:04;;;;;;;;;0.00;0.00;;;;;;;;5090687;27;45521;-68
2022/04/07 04:52:29;;;;;;;;;0.50;0.50;;;;;;;;5096525;27;45431;-67
2022/04/07 04:54:54;;;;;;;;;0.00;0.00;;;;;;;;5080265;27;45307;-67
2022/04/07 04:57:19;;;;;;;;;0.00;0.00;;;;;;;;5094795;27;45547;-67
2022/04/07 04:59:45;;;;;;;;;0.00;0.00;;;;;;;;5096517;27;45389;-67
2022/04/07 05:02:10;;;;;;;;;0.75;0.00;;;;;;;;5094618;27;45247;-67
2022/04/07 05:04:36;;;;;;;;;0.00;0.00;;;;;;;;5095135;27;45350;-67
2022/04/07 05:07:02;;;;;;;;;0.00;0.00;;;;;;;;5098141;27;45381;-67
2022/04/07 05:09:27;;;;;;;;;0.00;0.00;;;;;;;;5097516;27;45600;-67
2022/04/07 05:11:52;;;;;;;;;1.75;0.75;;;;;;;;5096334;27;45419;-68
2022/04/07 05:14:17;;;;;;;;;0.00;0.00;;;;;;;;5095772;27;45494;-67
2022/04/07 05:16:42;;;;;;;;;0.00;0.00;;;;;;;;5096886;27;45517;-67
2022/04/07 05:19:08;;;;;;;;;0.00;0.00;;;;;;;;5098186;27;45348;-68
2022/04/07 05:21:33;;;;;;;;;0.50;0.00;;;;;;;;5097623;27;46469;-68
2022/04/07 05:23:58;;;;;;;;;0.00;0.00;;;;;;;;5098321;27;45398;-67
2022/04/07 05:26:23;;;;;;;;;0.00;0.00;;;;;;;;5097095;27;45476;-67
2022/04/07 05:28:49;;;;;;;;;1.00;0.00;;;;;;;;5096450;27;45538;-71
2022/04/07 05:31:14;;;;;;;;;0.00;0.00;;;;;;;;5096113;27;46564;-69
2022/04/07 05:33:39;;;;;;;;;0.00;0.00;;;;;;;;5098027;27;45549;-69
2022/04/07 05:36:04;;;;;;;;;0.00;0.00;;;;;;;;5093626;27;45517;-69
2022/04/07 05:38:29;;;;;;;;;0.00;0.00;;;;;;;;5094249;27;45506;-72
2022/04/07 05:40:55;;;;;;;;;0.00;0.00;;;;;;;;5094807;27;46200;-70
2022/04/07 05:43:20;;;;;;;;;0.75;0.00;;;;;;;;5094714;27;45419;-71
2022/04/07 05:45:45;;;;;;;;;0.00;0.00;;;;;;;;5097222;27;45316;-72
2022/04/07 05:48:11;;;;;;;;;0.00;0.00;;;;;;;;5095739;27;45527;-72
2022/04/07 05:50:36;;;;;;;;;0.00;0.00;;;;;;;;5096218;27;45390;-70
2022/04/07 05:53:02;;;;;;;;;0.00;0.00;;;;;;;;5091124;27;45492;-71
2022/04/07 05:55:27;;;;;;;;;0.25;0.00;;;;;;;;5095243;27;45299;-71
2022/04/07 05:57:52;;;;;;;;;0.00;0.00;;;;;;;;5098550;27;45310;-70
2022/04/07 06:00:18;;;;;;;;;1.00;0.00;;;;;;;;5093389;27;46442;-70
2022/04/07 06:02:44;;;;;;;;;0.50;0.00;;;;;;;;5094358;27;45531;-70
2022/04/07 06:05:09;;;;;;;;;0.00;0.00;;;;;;;;5096118;27;45316;-70
2022/04/07 06:07:35;;;;;;;;;0.00;0.00;;;;;;;;5097753;27;45394;-70
2022/04/07 06:10:01;;;;;;;;;0.00;0.00;;;;;;;;5097715;27;46542;-70
2022/04/07 06:12:27;;;;;;;;;0.00;0.00;;;;;;;;5096701;27;45469;-70
2022/04/07 06:14:52;;;;;;;;;0.00;0.00;;;;;;;;5095399;27;45271;-70
2022/04/07 06:17:17;;;;;;;;;1.00;0.00;;;;;;;;5094087;27;45481;-70
2022/04/07 06:19:42;;;;;;;;;0.00;0.00;;;;;;;;5095612;27;46729;-70
2022/04/07 06:22:07;;;;;;;;;1.67;0.00;;;;;;;;5095531;27;46468;-71
2022/04/07 06:24:33;;;;;;;;;0.00;0.00;;;;;;;;5097548;27;45273;-70
2022/04/07 06:26:58;;;;;;;;;0.00;0.00;;;;;;;;5095279;27;45847;-70
2022/04/07 06:29:24;;;;;;;;;2.00;0.00;;;;;;;;5095456;27;45427;-70
2022/04/07 06:31:49;;;;;;;;;0.00;0.00;;;;;;;;5094930;27;45349;-71
2022/04/07 06:34:14;;;;;;;;;0.00;0.00;;;;;;;;5095071;27;45383;-71
2022/04/07 06:36:39;;;;;;;;;0.00;0.00;;;;;;;;5097469;27;45233;-71
2022/04/07 06:39:05;;;;;;;;;1.00;1.00;;;;;;;;5095387;27;45559;-70
2022/04/07 06:41:30;;;;;;;;;0.00;0.00;;;;;;;;5092747;27;45509;-71
2022/04/07 06:43:55;;;;;;;;;0.00;0.00;;;;;;;;5095586;27;45539;-71
2022/04/07 06:46:20;;;;;;;;;1.00;0.00;;;;;;;;5095029;27;45259;-70
2022/04/07 06:48:45;;;;;;;;;1.00;0.00;;;;;;;;5096682;27;46552;-70
2022/04/07 06:51:11;;;;;;;;;0.00;0.00;;;;;;;;5092797;27;45406;-70
2022/04/07 06:53:36;;;;;;;;;0.00;0.00;;;;;;;;5094738;27;45402;-71
2022/04/07 06:56:01;;;;;;;;;0.00;0.00;;;;;;;;5092924;27;45299;-70
2022/04/07 06:58:26;;;;;;;;;0.00;0.00;;;;;;;;5094395;27;46491;-70
2022/04/07 07:00:52;;;;;;;;;0.00;0.00;;;;;;;;5096762;27;45483;-70
2022/04/07 07:03:17;;;;;;;;;0.00;0.00;;;;;;;;5093617;27;45335;-69
2022/04/07 07:05:42;;;;;;;;;0.00;0.00;;;;;;;;5091559;27;45568;-70
2022/04/07 07:08:14;;;;;;;;;0.67;0.00;;;;;;;;5094611;27;46916;-69
2022/04/07 07:10:39;;;;;;;;;0.00;0.00;;;;;;;;5092376;27;45496;-69
2022/04/07 07:13:05;;;;;;;;;0.75;0.75;;;;;;;;5095637;27;45426;-70
2022/04/07 07:15:30;;;;;;;;;0.00;0.00;;;;;;;;5095563;27;45514;-69
2022/04/07 07:17:55;;;;;;;;;0.00;0.00;;;;;;;;5094258;27;46171;-70
2022/04/07 07:20:20;;;;;;;;;0.00;0.00;;;;;;;;5094598;27;45469;-69
2022/04/07 07:22:45;;;;;;;;;0.00;0.00;;;;;;;;5095544;27;45396;-70
2022/04/07 07:25:11;;;;;;;;;0.67;0.67;;;;;;;;5096132;27;45338;-70
2022/04/07 07:27:43;;;;;;;;;0.00;0.00;;;;;;;;5094290;27;45470;-69
2022/04/07 07:30:09;;;;;;;;;0.00;0.00;;;;;;;;5093610;27;45487;-69
2022/04/07 07:32:38;;;;;;;;;1.00;1.00;;;;;;;;5095597;27;45601;-69
2022/04/07 07:35:04;;;;;;;;;0.00;0.00;;;;;;;;5094475;27;45510;-69
2022/04/07 07:37:29;;;;;;;;;0.50;0.00;;;;;;;;5093766;27;45466;-69
2022/04/07 07:39:54;;;;;;;;;0.25;0.25;;;;;;;;5096793;27;45303;-70
2022/04/07 07:42:19;;;;;;;;;0.75;0.00;;;;;;;;5094458;27;45462;-69
2022/04/07 07:44:45;;;;;;;;;0.00;0.00;;;;;;;;5091524;27;45450;-69
2022/04/07 07:47:10;;;;;;;;;0.50;0.00;;;;;;;;5093987;27;45507;-70
2022/04/07 07:49:35;;;;;;;;;0.00;0.00;;;;;;;;5094145;27;45449;-70
2022/04/07 07:52:01;;;;;;;;;0.50;0.50;;;;;;;;5095571;27;45410;-69
2022/04/07 07:54:26;;;;;;;;;0.00;0.00;;;;;;;;5094815;27;45383;-70
2022/04/07 07:56:51;;;;;;;;;1.67;0.00;;;;;;;;5093793;27;45651;-69
2022/04/07 07:59:20;;;;;;;;;0.00;0.00;;;;;;;;5091907;27;45381;-69
2022/04/07 08:01:45;;;;;;;;;0.25;0.00;;;;;;;;5092835;27;45488;-69
2022/04/07 08:04:12;;;;;;;;;0.00;0.00;;;;;;;;5094356;27;45364;-69
2022/04/07 08:06:37;;;;;;;;;0.00;0.00;;;;;;;;5094072;27;46660;-69
2022/04/07 08:09:02;;;;;;;;;0.00;0.00;;;;;;;;5095806;27;45407;-69
2022/04/07 08:11:27;;;;;;;;;0.00;0.00;;;;;;;;5095947;27;45559;-69
2022/04/07 08:13:53;;;;;;;;;1.00;0.00;;;;;;;;5091145;27;45335;-69
2022/04/07 08:16:18;;;;;;;;;0.00;0.00;;;;;;;;5096420;27;45572;-69
2022/04/07 08:18:43;;;;;;;;;0.25;0.00;;;;;;;;5097678;27;45508;-69
2022/04/07 08:21:09;;;;;;;;;0.00;0.00;;;;;;;;5097369;27;45437;-68
2022/04/07 08:23:34;;;;;;;;;0.67;0.00;;;;;;;;5094624;27;45420;-69
2022/04/07 08:25:59;;;;;;;;;0.00;0.00;;;;;;;;5096395;27;46169;-69
2022/04/07 08:28:25;;;;;;;;;0.75;0.00;;;;;;;;5080578;27;45277;-69
2022/04/07 08:30:50;;;;;;;;;0.25;0.25;;;;;;;;5099302;27;45377;-69
2022/04/07 08:33:15;;;;;;;;;0.50;0.00;;;;;;;;5097141;27;45432;-69
2022/04/07 08:35:41;;;;;;;;;0.00;0.00;;;;;;;;5092266;27;46456;-69
2022/04/07 08:38:06;;;;;;;;;0.25;0.00;;;;;;;;5085405;27;45533;-69
2022/04/07 08:40:34;;;;;;;;;0.00;0.00;;;;;;;;5096949;27;45487;-69
2022/04/07 08:43:00;;;;;;;;;0.00;0.00;;;;;;;;5098069;27;45441;-69
2022/04/07 08:45:25;;;;;;;;;0.00;0.00;;;;;;;;5097409;27;47290;-69
2022/04/07 08:47:54;;;;;;;;;0.00;0.00;;;;;;;;5094379;27;45547;-69
2022/04/07 08:50:22;;;;;;;;;0.00;0.00;;;;;;;;5096954;27;45419;-69
2022/04/07 08:52:47;;;;;;;;;0.00;0.00;;;;;;;;5094520;27;45409;-69
2022/04/07 08:55:12;;;;;;;;;0.75;0.00;;;;;;;;5097263;27;45406;-69
2022/04/07 08:57:39;;;;;;;;;0.00;0.00;;;;;;;;5098617;27;45526;-69
2022/04/07 09:00:04;;;;;;;;;2.00;0.00;;;;;;;;5096665;27;45431;-69
2022/04/07 09:02:30;;;;;;;;;0.00;0.00;;;;;;;;5096533;27;45516;-69
2022/04/07 09:04:58;;;;;;;;;0.00;0.00;;;;;;;;5096604;27;45406;-69
2022/04/07 09:07:29;;;;;;;;;0.00;0.00;;;;;;;;5096194;27;45212;-69
2022/04/07 09:09:57;;;;;;;;;0.50;0.00;;;;;;;;5094494;27;45299;-69
2022/04/07 09:12:23;;;;;;;;;0.00;0.00;;;;;;;;5095482;27;45252;-69
2022/04/07 09:14:54;;;;;;;;;0.00;0.00;;;;;;;;5093378;27;48518;-69
2022/04/07 09:17:19;;;;;;;;;0.00;0.00;;;;;;;;5096217;27;45416;-69
2022/04/07 09:19:48;;;;;;;;;0.75;0.75;;;;;;;;5095386;27;45453;-69
2022/04/07 09:22:14;;;;;;;;;0.50;0.50;;;;;;;;5096085;27;45296;-69
2022/04/07 09:24:40;;;;;;;;;0.00;0.00;;;;;;;;5096376;27;47025;-69
2022/04/07 09:27:06;;;;;;;;;1.00;0.00;;;;;;;;5094205;27;45446;-69
2022/04/07 09:29:41;;;;;;;;;0.00;0.00;;;;;;;;5088897;27;45391;-68
2022/04/07 09:32:26;;;;;;;;;0.00;0.00;;;;;;;;5088942;27;45509;-69
2022/04/07 09:34:53;;;;;;;;;0.00;0.00;;;;;;;;5086289;27;45624;-69
2022/04/07 09:37:20;;;;;;;;;1.00;0.00;;;;;;;;5082374;27;45527;-69
2022/04/07 09:39:45;;;;;;;;;1.00;1.00;;;;;;;;5097478;27;45477;-69
2022/04/07 09:42:17;;;;;;;;;0.67;0.67;;;;;;;;5095559;27;45433;-69
2022/04/07 09:44:42;;;;;;;;;1.00;0.00;;;;;;;;5095897;27;45566;-70
2022/04/07 09:47:11;;;;;;;;;0.00;0.00;;;;;;;;5095928;27;45403;-70
2022/04/07 09:49:36;;;;;;;;;0.25;0.00;;;;;;;;5095991;27;45279;-70
2022/04/07 09:52:01;;;;;;;;;0.00;0.00;;;;;;;;5097369;27;45376;-70
2022/04/07 09:54:28;;;;;;;;;1.00;0.00;;;;;;;;5095732;27;45330;-70
2022/04/07 09:56:54;;;;;;;;;0.00;0.00;;;;;;;;5087049;27;45622;-70
2022/04/07 09:59:20;;;;;;;;;0.00;0.00;;;;;;;;5090315;27;45498;-70
2022/04/07 10:01:48;;;;;;;;;0.00;0.00;;;;;;;;5092876;27;45360;-73
2022/04/07 10:04:14;;;;;;;;;1.00;0.00;;;;;;;;5093754;27;45566;-71
2022/04/07 10:06:39;;;;;;;;;0.00;0.00;;;;;;;;5093555;27;45378;-70
2022/04/07 10:09:09;;;;;;;;;0.00;0.00;;;;;;;;5088005;27;45376;-70
2022/04/07 10:11:34;;;;;;;;;1.25;0.00;;;;;;;;5091049;27;45463;-71
2022/04/07 10:14:00;;;;;;;;;1.00;0.00;;;;;;;;5090619;27;45592;-71
2022/04/07 10:16:27;;;;;;;;;0.00;0.00;;;;;;;;5079304;27;45430;-70
2022/04/07 10:19:03;;;;;;;;;0.00;0.00;;;;;;;;5096621;27;45351;-71
2022/04/07 10:21:48;;;;;;;;;1.00;0.00;;;;;;;;5082983;27;45551;-71
2022/04/07 10:24:24;;;;;;;;;1.25;0.25;;;;;;;;5088947;27;45584;-71
2022/04/07 10:26:49;;;;;;;;;1.00;0.00;;;;;;;;5090156;27;45303;-71
2022/04/07 10:29:24;;;;;;;;;0.00;0.00;;;;;;;;5090701;27;45567;-71
2022/04/07 10:32:09;;;;;;;;;1.00;0.00;;;;;;;;5092319;27;45320;-70
2022/04/07 10:34:35;;;;;;;;;0.25;0.25;;;;;;;;5079930;27;45515;-71
2022/04/07 10:37:06;;;;;;;;;0.00;0.00;;;;;;;;5092090;27;45478;-70
2022/04/07 10:39:32;;;;;;;;;1.00;0.00;;;;;;;;5096484;27;45351;-71
2022/04/07 10:41:57;;;;;;;;;0.00;0.00;;;;;;;;5092639;27;45371;-71
2022/04/07 10:44:25;;;;;;;;;0.00;0.00;;;;;;;;5094739;27;46441;-71
2022/04/07 10:47:00;;;;;;;;;0.33;0.33;;;;;;;;5095486;27;45418;-71
2022/04/07 10:49:25;;;;;;;;;0.00;0.00;;;;;;;;5095379;27;45463;-71
2022/04/07 10:51:54;;;;;;;;;1.67;0.00;;;;;;;;5094981;27;45515;-71
2022/04/07 10:54:21;;;;;;;;;1.00;1.00;;;;;;;;5093643;27;46338;-70
2022/04/07 10:56:48;;;;;;;;;0.00;0.00;;;;;;;;5093515;27;45402;-70
2022/04/07 10:59:14;;;;;;;;;1.00;0.00;;;;;;;;5092838;27;45455;-71
2022/04/07 11:01:42;;;;;;;;;0.00;0.00;;;;;;;;5093878;27;45548;-73
2022/04/07 11:04:16;;;;;;;;;2.00;1.00;;;;;;;;5095433;27;47051;-72
2022/04/07 11:07:00;;;;;;;;;1.00;1.00;;;;;;;;5095168;27;45291;-71
2022/04/07 11:09:25;;;;;;;;;0.00;0.00;;;;;;;;5093731;27;45473;-72
2022/04/07 11:11:54;;;;;;;;;1.00;1.00;;;;;;;;5092891;27;45382;-71
2022/04/07 11:14:26;;;;;;;;;1.00;1.00;;;;;;;;5093896;27;46539;-71
2022/04/07 11:16:52;;;;;;;;;0.00;0.00;;;;;;;;5091811;27;45244;-72
2022/04/07 11:19:23;;;;;;;;;0.00;0.00;;;;;;;;5094698;27;45475;-72
2022/04/07 11:21:49;;;;;;;;;0.00;0.00;;;;;;;;5095907;27;45486;-72
2022/04/07 11:24:22;;;;;;;;;2.00;0.00;;;;;;;;5094544;27;46826;-72
2022/04/07 11:26:47;;;;;;;;;0.00;0.00;;;;;;;;5092583;27;45423;-74
2022/04/07 11:29:13;;;;;;;;;0.00;0.00;;;;;;;;5092923;27;50940;-73
2022/04/07 11:31:39;;;;;;;;;1.00;0.00;;;;;;;;5092493;27;45559;-72
2022/04/07 11:34:25;;;;;;;;;0.67;0.67;;;;;;;;5095463;27;46207;-72
2022/04/07 11:36:51;;;;;;;;;0.00;0.00;;;;;;;;5095614;27;45512;-72
2022/04/07 11:39:16;;;;;;;;;0.67;0.33;;;;;;;;5092552;27;45221;-72
2022/04/07 11:41:43;;;;;;;;;1.00;0.00;;;;;;;;5094615;27;45556;-72
2022/04/07 11:44:09;;;;;;;;;1.00;1.00;;;;;;;;5092185;27;45482;-72
2022/04/07 11:46:34;;;;;;;;;0.00;0.00;;;;;;;;5092632;27;45482;-72
2022/04/07 11:49:00;;;;;;;;;2.00;2.00;;;;;;;;5084264;27;45442;-70
2022/04/07 11:51:26;;;;;;;;;0.00;0.00;;;;;;;;5093492;27;45467;-71
2022/04/07 11:53:52;;;;;;;;;0.00;0.00;;;;;;;;5093587;27;45541;-71
2022/04/07 11:56:21;;;;;;;;;0.67;0.00;;;;;;;;5092048;27;45355;-71
2022/04/07 11:58:53;;;;;;;;;0.67;0.00;;;;;;;;5091981;27;45570;-70
2022/04/07 12:01:18;;;;;;;;;1.67;0.00;;;;;;;;5093602;27;45441;-71
2022/04/07 12:03:43;;;;;;;;;0.00;0.00;;;;;;;;5096005;27;46357;-70
2022/04/07 12:06:09;;;;;;;;;2.00;0.00;;;;;;;;5092786;27;45568;-71
2022/04/07 12:08:35;;;;;;;;;0.00;0.00;;;;;;;;5085645;27;45340;-71
2022/04/07 12:11:00;;;;;;;;;0.00;0.00;;;;;;;;5082278;27;45340;-71
2022/04/07 12:13:26;;;;;;;;;0.00;0.00;;;;;;;;5071783;28;49068;-71
2022/04/07 12:15:51;;;;;;;;;2.00;0.75;;;;;;;;5074856;28;45256;-71
2022/04/07 12:18:24;;;;;;;;;0.67;0.00;;;;;;;;5071220;28;45285;-71
2022/04/07 12:20:56;;;;;;;;;1.00;1.00;;;;;;;;5072272;28;45423;-71
2022/04/07 12:23:25;;;;;;;;;0.00;0.00;;;;;;;;5071275;28;45489;-71
2022/04/07 12:25:55;;;;;;;;;2.00;0.67;;;;;;;;5071433;28;45586;-71
2022/04/07 12:28:21;;;;;;;;;1.00;1.00;;;;;;;;5081794;27;45569;-70
2022/04/07 12:30:47;;;;;;;;;2.00;0.67;;;;;;;;5075047;28;45522;-71
2022/04/07 12:33:31;;;;;;;;;0.25;0.00;;;;;;;;5070671;28;46181;-71
2022/04/07 12:35:56;;;;;;;;;0.00;0.00;;;;;;;;5072034;28;45452;-71
2022/04/07 12:38:21;;;;;;;;;0.33;0.00;;;;;;;;5073188;28;45505;-70
2022/04/07 12:40:48;;;;;;;;;1.00;0.00;;;;;;;;5072653;28;45538;-71
2022/04/07 12:43:13;;;;;;;;;0.00;0.00;;;;;;;;5073916;28;45526;-71
2022/04/07 12:45:54;;;;;;;;;2.25;0.00;;;;;;;;5062603;28;45508;-70
2022/04/07 12:48:22;;;;;;;;;1.33;0.00;;;;;;;;5070185;28;45462;-71
2022/04/07 12:50:47;;;;;;;;;0.00;0.00;;;;;;;;5072464;28;45379;-71
2022/04/07 12:53:34;;;;;;;;;0.00;0.00;;;;;;;;5072318;28;45407;-71
2022/04/07 12:56:02;;;;;;;;;0.00;0.00;;;;;;;;5075432;27;45594;-71
2022/04/07 12:58:28;;;;;;;;;0.00;0.00;;;;;;;;5070449;28;45510;-71
2022/04/07 13:01:00;;;;;;;;;1.50;1.00;;;;;;;;5078143;28;45489;-71
2022/04/07 13:03:28;;;;;;;;;3.00;0.00;;;;;;;;5076779;28;46469;-71
2022/04/07 13:05:53;;;;;;;;;0.00;0.00;;;;;;;;5072731;28;45442;-71
2022/04/07 13:08:19;;;;;;;;;2.00;0.25;;;;;;;;5077270;28;45624;-71
2022/04/07 13:10:44;;;;;;;;;1.00;0.00;;;;;;;;5081164;27;45309;-71
2022/04/07 13:13:10;;;;;;;;;0.00;0.00;;;;;;;;5097175;27;46561;-71
2022/04/07 13:15:35;;;;;;;;;0.00;0.00;;;;;;;;5096217;27;45507;-71
2022/04/07 13:18:01;;;;;;;;;0.00;0.00;;;;;;;;5094137;27;45452;-71
2022/04/07 13:20:27;;;;;;;;;1.75;1.00;;;;;;;;5096230;27;45658;-71
2022/04/07 13:22:52;;;;;;;;;0.00;0.00;;;;;;;;5093938;27;47246;-71
2022/04/07 13:25:17;;;;;;;;;0.00;0.00;;;;;;;;5091499;27;45553;-71
2022/04/07 13:27:42;;;;;;;;;0.00;0.00;;;;;;;;5096955;27;45438;-71
2022/04/07 13:30:10;;;;;;;;;0.50;0.25;;;;;;;;5095657;27;45407;-71
2022/04/07 13:32:35;;;;;;;;;2.50;0.50;;;;;;;;5096848;27;45588;-71
2022/04/07 13:35:00;;;;;;;;;1.00;0.00;;;;;;;;5096545;27;45529;-71
2022/04/07 13:37:26;;;;;;;;;2.75;1.00;;;;;;;;5096302;27;45414;-71
2022/04/07 13:39:52;;;;;;;;;1.00;0.00;;;;;;;;5098012;27;46031;-71
2022/04/07 13:42:17;;;;;;;;;1.50;0.00;;;;;;;;5093794;27;45462;-71
2022/04/07 13:44:43;;;;;;;;;1.00;0.00;;;;;;;;5096108;27;45251;-71
2022/04/07 13:47:08;;;;;;;;;1.00;1.00;;;;;;;;5087971;27;45296;-71
2022/04/07 13:49:33;;;;;;;;;0.75;0.00;;;;;;;;5094332;27;45292;-71
2022/04/07 13:52:00;;;;;;;;;1.67;1.67;;;;;;;;5097759;27;46440;-71
2022/04/07 13:54:25;;;;;;;;;1.00;0.00;;;;;;;;5096230;27;45293;-71
2022/04/07 13:56:51;;;;;;;;;3.00;1.25;;;;;;;;5094387;27;45402;-71
2022/04/07 13:59:16;;;;;;;;;0.75;0.75;;;;;;;;5093778;27;45535;-71
2022/04/07 14:01:41;;;;;;;;;0.00;0.00;;;;;;;;5094742;27;46375;-70
2022/04/07 14:04:06;;;;;;;;;1.00;0.00;;;;;;;;5096671;27;45353;-71
2022/04/07 14:06:32;;;;;;;;;1.25;0.00;;;;;;;;5095495;27;45338;-71
2022/04/07 14:08:57;;;;;;;;;1.00;0.00;;;;;;;;5095794;27;45486;-71
2022/04/07 14:11:22;;;;;;;;;1.50;0.00;;;;;;;;5094988;27;46475;-71
2022/04/07 14:13:48;;;;;;;;;0.75;0.25;;;;;;;;5079951;27;45509;-71
2022/04/07 14:16:13;;;;;;;;;0.67;0.00;;;;;;;;5095493;27;45537;-71
2022/04/07 14:18:38;;;;;;;;;1.00;1.00;;;;;;;;5097300;27;45328;-71
2022/04/07 14:21:04;;;;;;;;;0.00;0.00;;;;;;;;5093764;27;46657;-71
2022/04/07 14:23:30;;;;;;;;;0.00;0.00;;;;;;;;5095186;27;45712;-71
2022/04/07 14:25:55;;;;;;;;;0.00;0.00;;;;;;;;5095435;27;45515;-71
2022/04/07 14:28:21;;;;;;;;;0.00;0.00;;;;;;;;5095139;27;45552;-71
2022/04/07 14:30:49;;;;;;;;;2.67;0.00;;;;;;;;5096896;27;47099;-71
2022/04/07 14:33:14;;;;;;;;;0.33;0.33;;;;;;;;5095407;27;45466;-71
2022/04/07 14:35:40;;;;;;;;;1.00;0.00;;;;;;;;5089636;27;45521;-71
2022/04/07 14:38:06;;;;;;;;;1.00;1.00;;;;;;;;5088358;27;48387;-71